sensor_id;sensor_type;location;lat;lon;timestamp;pressure;altitude;pressure_sealevel;temperature;humidity
38612;BME280;24368;52.156;20.788;2023-04-10T00:04:54;101239.30;;;7.59;100.00
38612;BME280;24368;52.156;20.788;2023-04-10T00:09:55;101241.75;;;7.57;100.00
38612;BME280;24368;52.156;20.788;2023-04-10T00:14:56;101238.27;;;7.52;100.00
38612;BME280;24368;52.156;20.788;2023-04-10T00:19:58;101240.06;;;7.21;100.00
38612;BME280;24368;52.156;20.788;2023-04-10T00:24:59;101243.04;;;7.08;100.00
38612;BME280;24368;52.156;20.788;2023-04-10T00:30:00;101241.64;;;7.15;100.00
38612;BME280;24368;52.156;20.788;2023-04-10T00:35:02;101244.09;;;7.11;100.00
38612;BME280;24368;52.156;20.788;2023-04-10T00:40:04;101242.67;;;7.01;100.00
38612;BME280;24368;52.156;20.788;2023-04-10T00:45:06;101243.77;;;6.91;100.00
38612;BME280;24368;52.156;20.788;2023-04-10T00:50:08;101243.92;;;6.79;100.00
38612;BME280;24368;52.156;20.788;2023-04-10T00:55:09;101240.91;;;6.76;100.00
38612;BME280;24368;52.156;20.788;2023-04-10T01:00:15;101248.19;;;6.65;100.00
38612;BME280;24368;52.156;20.788;2023-04-10T01:05:16;101251.26;;;6.61;100.00
38612;BME280;24368;52.156;20.788;2023-04-10T01:15:45;101248.97;;;6.61;100.00
38612;BME280;24368;52.156;20.788;2023-04-10T01:20:47;101250.36;;;6.77;100.00
38612;BME280;24368;52.156;20.788;2023-04-10T01:31:41;101244.37;;;6.97;100.00
38612;BME280;24368;52.156;20.788;2023-04-10T01:37:07;101238.92;;;6.92;100.00
38612;BME280;24368;52.156;20.788;2023-04-10T01:42:10;101240.70;;;7.02;100.00
38612;BME280;24368;52.156;20.788;2023-04-10T01:47:14;101241.46;;;7.01;100.00
38612;BME280;24368;52.156;20.788;2023-04-10T01:52:18;101243.75;;;6.93;100.00
38612;BME280;24368;52.156;20.788;2023-04-10T01:57:20;101247.61;;;6.71;100.00
38612;BME280;24368;52.156;20.788;2023-04-10T02:02:22;101252.61;;;6.54;100.00
38612;BME280;24368;52.156;20.788;2023-04-10T02:07:35;101251.03;;;6.31;100.00
38612;BME280;24368;52.156;20.788;2023-04-10T02:12:51;101253.66;;;6.29;100.00
38612;BME280;24368;52.156;20.788;2023-04-10T02:17:55;101253.00;;;6.05;100.00
38612;BME280;24368;52.156;20.788;2023-04-10T02:22:57;101256.74;;;5.96;100.00
38612;BME280;24368;52.156;20.788;2023-04-10T02:28:06;101255.50;;;6.02;100.00
38612;BME280;24368;52.156;20.788;2023-04-10T02:33:08;101260.61;;;6.11;100.00
38612;BME280;24368;52.156;20.788;2023-04-10T02:38:09;101266.23;;;5.98;100.00
38612;BME280;24368;52.156;20.788;2023-04-10T02:43:10;101266.69;;;5.94;100.00
38612;BME280;24368;52.156;20.788;2023-04-10T02:48:11;101264.45;;;5.82;100.00
38612;BME280;24368;52.156;20.788;2023-04-10T02:53:15;101263.37;;;5.64;100.00
38612;BME280;24368;52.156;20.788;2023-04-10T02:58:16;101265.36;;;5.57;100.00
38612;BME280;24368;52.156;20.788;2023-04-10T03:03:18;101263.71;;;5.53;100.00
38612;BME280;24368;52.156;20.788;2023-04-10T03:08:19;101260.87;;;5.46;100.00
38612;BME280;24368;52.156;20.788;2023-04-10T03:13:20;101263.36;;;5.51;100.00
38612;BME280;24368;52.156;20.788;2023-04-10T03:18:23;101262.54;;;5.58;100.00
38612;BME280;24368;52.156;20.788;2023-04-10T03:23:24;101258.95;;;5.70;100.00
38612;BME280;24368;52.156;20.788;2023-04-10T03:28:25;101254.29;;;5.75;100.00
38612;BME280;24368;52.156;20.788;2023-04-10T03:33:27;101256.08;;;5.63;100.00
38612;BME280;24368;52.156;20.788;2023-04-10T03:38:28;101257.20;;;5.38;100.00
38612;BME280;24368;52.156;20.788;2023-04-10T03:43:30;101259.30;;;5.35;100.00
38612;BME280;24368;52.156;20.788;2023-04-10T03:48:31;101264.02;;;5.30;100.00
38612;BME280;24368;52.156;20.788;2023-04-10T03:53:33;101263.55;;;5.34;100.00
38612;BME280;24368;52.156;20.788;2023-04-10T03:58:37;101262.77;;;5.25;100.00
38612;BME280;24368;52.156;20.788;2023-04-10T04:03:38;101263.90;;;5.26;100.00
38612;BME280;24368;52.156;20.788;2023-04-10T04:08:39;101264.71;;;5.21;100.00
38612;BME280;24368;52.156;20.788;2023-04-10T04:13:40;101274.19;;;5.06;100.00
38612;BME280;24368;52.156;20.788;2023-04-10T04:18:41;101274.34;;;4.99;100.00
38612;BME280;24368;52.156;20.788;2023-04-10T04:23:42;101288.55;;;5.17;100.00
38612;BME280;24368;52.156;20.788;2023-04-10T04:28:43;101289.71;;;5.21;100.00
38612;BME280;24368;52.156;20.788;2023-04-10T04:33:44;101289.63;;;5.08;100.00
38612;BME280;24368;52.156;20.788;2023-04-10T04:38:45;101292.70;;;5.15;100.00
38612;BME280;24368;52.156;20.788;2023-04-10T04:43:46;101300.20;;;5.30;100.00
38612;BME280;24368;52.156;20.788;2023-04-10T04:48:49;101307.02;;;5.24;100.00
38612;BME280;24368;52.156;20.788;2023-04-10T04:53:50;101307.58;;;5.31;100.00
38612;BME280;24368;52.156;20.788;2023-04-10T04:58:51;101309.68;;;5.31;100.00
38612;BME280;24368;52.156;20.788;2023-04-10T05:03:52;101318.33;;;5.30;100.00
38612;BME280;24368;52.156;20.788;2023-04-10T05:08:53;101324.39;;;5.37;100.00
38612;BME280;24368;52.156;20.788;2023-04-10T05:13:54;101319.17;;;5.44;100.00
38612;BME280;24368;52.156;20.788;2023-04-10T05:18:55;101321.86;;;5.51;100.00
38612;BME280;24368;52.156;20.788;2023-04-10T05:23:56;101321.93;;;5.50;100.00
38612;BME280;24368;52.156;20.788;2023-04-10T05:28:57;101323.78;;;5.41;100.00
38612;BME280;24368;52.156;20.788;2023-04-10T05:33:59;101327.91;;;5.39;100.00
38612;BME280;24368;52.156;20.788;2023-04-10T05:39:00;101328.78;;;5.66;100.00
38612;BME280;24368;52.156;20.788;2023-04-10T05:44:01;101332.85;;;5.85;100.00
38612;BME280;24368;52.156;20.788;2023-04-10T05:49:02;101330.09;;;5.84;100.00
38612;BME280;24368;52.156;20.788;2023-04-10T05:54:03;101330.33;;;5.97;100.00
38612;BME280;24368;52.156;20.788;2023-04-10T05:59:04;101328.45;;;6.12;100.00
38612;BME280;24368;52.156;20.788;2023-04-10T06:04:06;101333.82;;;6.37;100.00
38612;BME280;24368;52.156;20.788;2023-04-10T06:09:07;101337.59;;;6.51;100.00
38612;BME280;24368;52.156;20.788;2023-04-10T06:14:08;101334.60;;;6.64;100.00
38612;BME280;24368;52.156;20.788;2023-04-10T06:19:10;101335.23;;;6.80;100.00
38612;BME280;24368;52.156;20.788;2023-04-10T06:24:11;101340.30;;;6.93;100.00
38612;BME280;24368;52.156;20.788;2023-04-10T06:29:13;101337.56;;;7.04;100.00
38612;BME280;24368;52.156;20.788;2023-04-10T06:34:14;101336.55;;;7.24;100.00
38612;BME280;24368;52.156;20.788;2023-04-10T06:39:16;101335.38;;;7.48;100.00
38612;BME280;24368;52.156;20.788;2023-04-10T06:44:17;101341.31;;;7.73;100.00
38612;BME280;24368;52.156;20.788;2023-04-10T06:49:18;101344.23;;;7.97;100.00
38612;BME280;24368;52.156;20.788;2023-04-10T06:54:19;101341.26;;;8.19;100.00
38612;BME280;24368;52.156;20.788;2023-04-10T06:59:21;101339.48;;;8.33;100.00
38612;BME280;24368;52.156;20.788;2023-04-10T07:04:22;101342.68;;;8.45;100.00
38612;BME280;24368;52.156;20.788;2023-04-10T07:09:26;101342.01;;;8.63;100.00
38612;BME280;24368;52.156;20.788;2023-04-10T07:14:27;101346.77;;;8.79;100.00
38612;BME280;24368;52.156;20.788;2023-04-10T07:19:29;101342.02;;;9.06;100.00
38612;BME280;24368;52.156;20.788;2023-04-10T07:24:30;101343.55;;;9.22;100.00
38612;BME280;24368;52.156;20.788;2023-04-10T07:29:32;101344.23;;;9.40;100.00
38612;BME280;24368;52.156;20.788;2023-04-10T07:34:33;101351.20;;;9.47;100.00
38612;BME280;24368;52.156;20.788;2023-04-10T07:39:34;101343.18;;;9.67;100.00
38612;BME280;24368;52.156;20.788;2023-04-10T07:44:35;101343.42;;;9.78;100.00
38612;BME280;24368;52.156;20.788;2023-04-10T07:49:36;101344.62;;;9.96;100.00
38612;BME280;24368;52.156;20.788;2023-04-10T07:54:38;101345.81;;;10.03;100.00
38612;BME280;24368;52.156;20.788;2023-04-10T07:59:39;101343.50;;;10.12;100.00
38612;BME280;24368;52.156;20.788;2023-04-10T08:04:40;101339.13;;;10.37;100.00
38612;BME280;24368;52.156;20.788;2023-04-10T08:09:42;101333.20;;;10.74;100.00
38612;BME280;24368;52.156;20.788;2023-04-10T08:14:43;101334.04;;;10.89;100.00
38612;BME280;24368;52.156;20.788;2023-04-10T08:19:45;101334.99;;;10.94;100.00
38612;BME280;24368;52.156;20.788;2023-04-10T08:24:46;101329.54;;;11.04;100.00
38612;BME280;24368;52.156;20.788;2023-04-10T08:29:47;101332.21;;;11.10;100.00
38612;BME280;24368;52.156;20.788;2023-04-10T08:34:48;101331.49;;;11.29;100.00
38612;BME280;24368;52.156;20.788;2023-04-10T08:39:49;101326.31;;;11.37;100.00
38612;BME280;24368;52.156;20.788;2023-04-10T08:44:51;101323.41;;;11.48;100.00
38612;BME280;24368;52.156;20.788;2023-04-10T08:49:53;101317.94;;;11.64;100.00
38612;BME280;24368;52.156;20.788;2023-04-10T08:54:56;101315.56;;;11.67;100.00
38612;BME280;24368;52.156;20.788;2023-04-10T08:59:59;101316.19;;;11.89;100.00
38612;BME280;24368;52.156;20.788;2023-04-10T09:05:01;101313.61;;;12.18;100.00
38612;BME280;24368;52.156;20.788;2023-04-10T09:10:05;101312.77;;;12.33;100.00
38612;BME280;24368;52.156;20.788;2023-04-10T09:15:07;101303.65;;;12.28;100.00
38612;BME280;24368;52.156;20.788;2023-04-10T09:20:20;101304.68;;;12.57;100.00
38612;BME280;24368;52.156;20.788;2023-04-10T09:25:34;101301.45;;;12.63;100.00
38612;BME280;24368;52.156;20.788;2023-04-10T09:30:37;101299.89;;;12.57;100.00
38612;BME280;24368;52.156;20.788;2023-04-10T09:35:39;101294.57;;;12.50;100.00
38612;BME280;24368;52.156;20.788;2023-04-10T09:40:41;101290.24;;;12.37;100.00
38612;BME280;24368;52.156;20.788;2023-04-10T09:45:54;101287.77;;;12.60;100.00
38612;BME280;24368;52.156;20.788;2023-04-10T09:50:57;101286.50;;;12.72;100.00
38612;BME280;24368;52.156;20.788;2023-04-10T09:55:58;101278.33;;;13.00;100.00
38612;BME280;24368;52.156;20.788;2023-04-10T10:01:00;101269.91;;;13.10;100.00
38612;BME280;24368;52.156;20.788;2023-04-10T10:06:02;101267.43;;;13.61;100.00
38612;BME280;24368;52.156;20.788;2023-04-10T10:11:06;101263.67;;;13.86;100.00
38612;BME280;24368;52.156;20.788;2023-04-10T10:16:21;101256.11;;;13.91;100.00
38612;BME280;24368;52.156;20.788;2023-04-10T10:21:27;101252.86;;;13.87;99.41
38612;BME280;24368;52.156;20.788;2023-04-10T10:26:31;101241.85;;;14.13;97.27
38612;BME280;24368;52.156;20.788;2023-04-10T10:31:35;101238.07;;;14.09;97.37
38612;BME280;24368;52.156;20.788;2023-04-10T10:36:38;101227.80;;;14.38;98.22
38612;BME280;24368;52.156;20.788;2023-04-10T10:41:46;101224.12;;;14.67;94.52
38612;BME280;24368;52.156;20.788;2023-04-10T10:51:59;101216.09;;;15.40;89.43
38612;BME280;24368;52.156;20.788;2023-04-10T10:57:01;101216.27;;;15.89;91.57
38612;BME280;24368;52.156;20.788;2023-04-10T11:02:12;101215.27;;;15.71;87.96
38612;BME280;24368;52.156;20.788;2023-04-10T11:07:16;101211.23;;;15.17;88.78
38612;BME280;24368;52.156;20.788;2023-04-10T11:12:20;101206.48;;;15.63;85.81
38612;BME280;24368;52.156;20.788;2023-04-10T11:17:50;101198.71;;;15.65;81.58
38612;BME280;24368;52.156;20.788;2023-04-10T11:23:08;101191.23;;;16.35;80.45
38612;BME280;24368;52.156;20.788;2023-04-10T11:33:32;101174.70;;;17.45;76.49
38612;BME280;24368;52.156;20.788;2023-04-10T11:38:33;101177.94;;;17.90;77.27
38612;BME280;24368;52.156;20.788;2023-04-10T11:43:34;101171.27;;;18.03;74.71
38612;BME280;24368;52.156;20.788;2023-04-10T11:48:36;101163.98;;;16.85;75.92
38612;BME280;24368;52.156;20.788;2023-04-10T11:53:38;101155.58;;;16.17;75.93
38612;BME280;24368;52.156;20.788;2023-04-10T11:58:39;101144.03;;;18.24;73.83
38612;BME280;24368;52.156;20.788;2023-04-10T12:03:42;101136.02;;;20.76;64.07
38612;BME280;24368;52.156;20.788;2023-04-10T12:08:46;101133.23;;;19.25;64.45
38612;BME280;24368;52.156;20.788;2023-04-10T12:13:56;101124.08;;;19.30;65.44
38612;BME280;24368;52.156;20.788;2023-04-10T12:18:58;101115.77;;;20.97;62.02
38612;BME280;24368;52.156;20.788;2023-04-10T12:23:59;101102.94;;;22.78;56.17
38612;BME280;24368;52.156;20.788;2023-04-10T12:29:00;101102.02;;;22.33;54.65
38612;BME280;24368;52.156;20.788;2023-04-10T12:34:02;101097.23;;;20.50;59.66
38612;BME280;24368;52.156;20.788;2023-04-10T12:39:21;101087.79;;;20.94;57.99
38612;BME280;24368;52.156;20.788;2023-04-10T12:44:23;101078.92;;;23.97;49.48
38612;BME280;24368;52.156;20.788;2023-04-10T12:49:24;101074.04;;;22.29;51.75
38612;BME280;24368;52.156;20.788;2023-04-10T12:54:35;101069.20;;;20.72;53.91
38612;BME280;24368;52.156;20.788;2023-04-10T12:59:37;101060.31;;;23.39;46.49
38612;BME280;24368;52.156;20.788;2023-04-10T13:04:38;101050.81;;;23.82;43.37
38612;BME280;24368;52.156;20.788;2023-04-10T13:09:39;101044.58;;;24.46;43.93
38612;BME280;24368;52.156;20.788;2023-04-10T13:14:40;101037.80;;;23.14;47.95
38612;BME280;24368;52.156;20.788;2023-04-10T13:19:42;101037.54;;;22.74;46.29
38612;BME280;24368;52.156;20.788;2023-04-10T13:24:43;101030.00;;;24.89;41.15
38612;BME280;24368;52.156;20.788;2023-04-10T13:29:44;101019.63;;;25.34;40.14
38612;BME280;24368;52.156;20.788;2023-04-10T13:34:45;101024.23;;;25.20;39.42
38612;BME280;24368;52.156;20.788;2023-04-10T13:39:46;101018.53;;;25.15;38.54
38612;BME280;24368;52.156;20.788;2023-04-10T13:44:48;101020.13;;;25.08;39.79
38612;BME280;24368;52.156;20.788;2023-04-10T13:49:49;101011.02;;;24.36;41.39
38612;BME280;24368;52.156;20.788;2023-04-10T13:54:50;101013.40;;;24.74;40.69
38612;BME280;24368;52.156;20.788;2023-04-10T13:59:52;101005.30;;;24.80;40.38
38612;BME280;24368;52.156;20.788;2023-04-10T14:04:53;101000.77;;;23.35;41.02
38612;BME280;24368;52.156;20.788;2023-04-10T14:09:54;101002.71;;;20.57;44.75
38612;BME280;24368;52.156;20.788;2023-04-10T14:14:55;100996.64;;;19.64;48.10
38612;BME280;24368;52.156;20.788;2023-04-10T14:19:56;100990.30;;;19.07;50.11
38612;BME280;24368;52.156;20.788;2023-04-10T14:24:57;100988.39;;;18.57;51.65
38612;BME280;24368;52.156;20.788;2023-04-10T14:29:58;100980.83;;;18.59;52.00
38612;BME280;24368;52.156;20.788;2023-04-10T14:34:59;100976.35;;;18.29;52.20
38612;BME280;24368;52.156;20.788;2023-04-10T14:40:01;100979.23;;;17.84;54.96
38612;BME280;24368;52.156;20.788;2023-04-10T14:45:05;100982.50;;;17.56;56.54
38612;BME280;24368;52.156;20.788;2023-04-10T14:50:06;100975.36;;;17.22;58.70
38612;BME280;24368;52.156;20.788;2023-04-10T14:55:08;100973.16;;;16.94;61.17
38612;BME280;24368;52.156;20.788;2023-04-10T15:00:10;100976.91;;;16.78;61.93
38612;BME280;24368;52.156;20.788;2023-04-10T15:05:11;100972.65;;;16.48;62.85
38612;BME280;24368;52.156;20.788;2023-04-10T15:10:13;100967.30;;;16.40;63.95
38612;BME280;24368;52.156;20.788;2023-04-10T15:15:14;100961.98;;;16.26;64.19
38612;BME280;24368;52.156;20.788;2023-04-10T15:20:16;100961.70;;;16.21;64.47
38612;BME280;24368;52.156;20.788;2023-04-10T15:25:17;100960.20;;;16.12;64.54
38612;BME280;24368;52.156;20.788;2023-04-10T15:30:21;100958.29;;;16.11;65.15
38612;BME280;24368;52.156;20.788;2023-04-10T15:36:07;100948.84;;;16.02;65.28
38612;BME280;24368;52.156;20.788;2023-04-10T15:41:09;100946.90;;;15.95;65.29
38612;BME280;24368;52.156;20.788;2023-04-10T15:46:10;100944.75;;;15.87;64.67
38612;BME280;24368;52.156;20.788;2023-04-10T15:51:12;100942.27;;;15.75;66.32
38612;BME280;24368;52.156;20.788;2023-04-10T15:56:13;100938.11;;;15.74;66.99
38612;BME280;24368;52.156;20.788;2023-04-10T16:01:15;100933.27;;;15.71;68.08
38612;BME280;24368;52.156;20.788;2023-04-10T16:06:17;100932.13;;;15.70;68.24
38612;BME280;24368;52.156;20.788;2023-04-10T16:11:19;100931.02;;;15.59;68.97
38612;BME280;24368;52.156;20.788;2023-04-10T16:16:20;100928.40;;;15.52;67.71
38612;BME280;24368;52.156;20.788;2023-04-10T16:21:22;100923.56;;;15.34;67.82
38612;BME280;24368;52.156;20.788;2023-04-10T16:26:23;100918.39;;;15.17;68.50
38612;BME280;24368;52.156;20.788;2023-04-10T16:31:24;100918.98;;;15.16;67.66
38612;BME280;24368;52.156;20.788;2023-04-10T16:36:25;100913.13;;;15.05;68.16
38612;BME280;24368;52.156;20.788;2023-04-10T16:41:27;100914.61;;;14.96;68.27
38612;BME280;24368;52.156;20.788;2023-04-10T16:46:28;100908.02;;;14.97;67.93
38612;BME280;24368;52.156;20.788;2023-04-10T16:51:30;100903.04;;;14.85;67.91
38612;BME280;24368;52.156;20.788;2023-04-10T16:56:32;100903.48;;;14.70;69.17
38612;BME280;24368;52.156;20.788;2023-04-10T17:01:33;100900.10;;;14.62;70.22
38612;BME280;24368;52.156;20.788;2023-04-10T17:06:39;100898.20;;;14.55;71.18
38612;BME280;24368;52.156;20.788;2023-04-10T17:11:41;100897.84;;;14.57;71.43
38612;BME280;24368;52.156;20.788;2023-04-10T17:16:43;100901.83;;;14.51;71.39
38612;BME280;24368;52.156;20.788;2023-04-10T17:21:45;100904.32;;;14.39;71.80
38612;BME280;24368;52.156;20.788;2023-04-10T17:26:46;100903.24;;;14.29;72.31
38612;BME280;24368;52.156;20.788;2023-04-10T17:31:47;100906.37;;;14.23;71.90
38612;BME280;24368;52.156;20.788;2023-04-10T17:36:49;100909.90;;;14.07;72.13
38612;BME280;24368;52.156;20.788;2023-04-10T17:41:50;100907.30;;;13.93;72.50
38612;BME280;24368;52.156;20.788;2023-04-10T17:46:52;100908.66;;;13.80;73.33
38612;BME280;24368;52.156;20.788;2023-04-10T17:51:54;100905.91;;;13.69;75.07
38612;BME280;24368;52.156;20.788;2023-04-10T17:56:55;100905.95;;;13.64;75.30
38612;BME280;24368;52.156;20.788;2023-04-10T18:01:57;100900.42;;;13.40;77.60
38612;BME280;24368;52.156;20.788;2023-04-10T18:06:58;100899.13;;;13.25;80.45
38612;BME280;24368;52.156;20.788;2023-04-10T18:11:59;100895.20;;;13.20;81.17
38612;BME280;24368;52.156;20.788;2023-04-10T18:17:01;100892.95;;;13.11;82.45
38612;BME280;24368;52.156;20.788;2023-04-10T18:22:03;100896.25;;;12.94;83.86
38612;BME280;24368;52.156;20.788;2023-04-10T18:27:04;100896.35;;;12.76;85.32
38612;BME280;24368;52.156;20.788;2023-04-10T18:32:06;100897.55;;;12.66;86.69
38612;BME280;24368;52.156;20.788;2023-04-10T18:37:10;100900.71;;;12.50;88.08
38612;BME280;24368;52.156;20.788;2023-04-10T18:42:12;100900.98;;;12.21;88.67
38612;BME280;24368;52.156;20.788;2023-04-10T18:47:13;100905.00;;;11.92;90.01
38612;BME280;24368;52.156;20.788;2023-04-10T18:52:15;100898.84;;;11.96;90.62
38612;BME280;24368;52.156;20.788;2023-04-10T18:57:17;100898.73;;;11.88;92.43
38612;BME280;24368;52.156;20.788;2023-04-10T19:02:19;100897.16;;;11.80;95.12
38612;BME280;24368;52.156;20.788;2023-04-10T19:07:20;100896.04;;;11.72;95.89
38612;BME280;24368;52.156;20.788;2023-04-10T19:12:21;100890.83;;;11.58;94.66
38612;BME280;24368;52.156;20.788;2023-04-10T19:17:23;100888.13;;;11.42;97.56
38612;BME280;24368;52.156;20.788;2023-04-10T19:22:24;100882.95;;;11.35;98.82
38612;BME280;24368;52.156;20.788;2023-04-10T19:27:26;100876.91;;;11.26;99.79
38612;BME280;24368;52.156;20.788;2023-04-10T19:32:28;100871.99;;;11.07;97.93
38612;BME280;24368;52.156;20.788;2023-04-10T19:37:29;100873.30;;;10.84;98.13
38612;BME280;24368;52.156;20.788;2023-04-10T19:42:33;100869.02;;;10.79;99.01
38612;BME280;24368;52.156;20.788;2023-04-10T19:47:34;100864.75;;;10.70;99.92
38612;BME280;24368;52.156;20.788;2023-04-10T19:52:36;100866.23;;;10.61;99.33
38612;BME280;24368;52.156;20.788;2023-04-10T19:57:37;100863.59;;;10.90;98.88
38612;BME280;24368;52.156;20.788;2023-04-10T20:02:39;100861.20;;;10.83;99.98
38612;BME280;24368;52.156;20.788;2023-04-10T20:07:40;100858.56;;;10.61;99.97
38612;BME280;24368;52.156;20.788;2023-04-10T20:12:41;100855.21;;;10.39;100.00
38612;BME280;24368;52.156;20.788;2023-04-10T20:17:42;100850.55;;;10.58;100.00
38612;BME280;24368;52.156;20.788;2023-04-10T20:22:44;100846.45;;;10.41;100.00
38612;BME280;24368;52.156;20.788;2023-04-10T20:27:45;100840.80;;;10.24;100.00
38612;BME280;24368;52.156;20.788;2023-04-10T20:32:46;100835.75;;;10.25;100.00
38612;BME280;24368;52.156;20.788;2023-04-10T20:37:47;100842.64;;;10.01;100.00
38612;BME280;24368;52.156;20.788;2023-04-10T20:42:48;100840.49;;;9.86;100.00
38612;BME280;24368;52.156;20.788;2023-04-10T20:47:49;100841.98;;;9.73;100.00
38612;BME280;24368;52.156;20.788;2023-04-10T20:52:50;100844.61;;;9.55;100.00
38612;BME280;24368;52.156;20.788;2023-04-10T20:57:51;100843.34;;;9.38;100.00
38612;BME280;24368;52.156;20.788;2023-04-10T21:02:53;100839.38;;;9.45;100.00
38612;BME280;24368;52.156;20.788;2023-04-10T21:07:54;100835.73;;;9.54;100.00
38612;BME280;24368;52.156;20.788;2023-04-10T21:12:55;100829.27;;;9.50;100.00
38612;BME280;24368;52.156;20.788;2023-04-10T21:17:56;100824.52;;;9.60;100.00
38612;BME280;24368;52.156;20.788;2023-04-10T21:22:58;100826.79;;;9.74;100.00
38612;BME280;24368;52.156;20.788;2023-04-10T21:27:59;100823.14;;;9.68;100.00
38612;BME280;24368;52.156;20.788;2023-04-10T21:33:01;100821.95;;;9.57;100.00
38612;BME280;24368;52.156;20.788;2023-04-10T21:38:02;100815.81;;;9.55;100.00
38612;BME280;24368;52.156;20.788;2023-04-10T21:43:03;100815.34;;;9.54;100.00
38612;BME280;24368;52.156;20.788;2023-04-10T21:48:05;100805.88;;;9.40;100.00
38612;BME280;24368;52.156;20.788;2023-04-10T21:53:06;100803.89;;;9.29;100.00
38612;BME280;24368;52.156;20.788;2023-04-10T21:58:07;100801.71;;;9.29;100.00
38612;BME280;24368;52.156;20.788;2023-04-10T22:03:08;100795.89;;;9.11;100.00
38612;BME280;24368;52.156;20.788;2023-04-10T22:08:09;100792.55;;;9.01;100.00
38612;BME280;24368;52.156;20.788;2023-04-10T22:13:10;100785.02;;;8.89;100.00
38612;BME280;24368;52.156;20.788;2023-04-10T22:18:12;100781.89;;;8.92;100.00
38612;BME280;24368;52.156;20.788;2023-04-10T22:23:13;100775.98;;;8.80;100.00
38612;BME280;24368;52.156;20.788;2023-04-10T22:28:14;100765.02;;;8.78;100.00
38612;BME280;24368;52.156;20.788;2023-04-10T22:33:15;100768.17;;;8.75;100.00
38612;BME280;24368;52.156;20.788;2023-04-10T22:38:16;100762.63;;;8.67;100.00
38612;BME280;24368;52.156;20.788;2023-04-10T22:43:17;100763.84;;;8.64;100.00
38612;BME280;24368;52.156;20.788;2023-04-10T22:48:18;100758.38;;;8.53;100.00
38612;BME280;24368;52.156;20.788;2023-04-10T22:53:19;100753.48;;;8.41;100.00
38612;BME280;24368;52.156;20.788;2023-04-10T22:58:21;100743.45;;;8.34;100.00
38612;BME280;24368;52.156;20.788;2023-04-10T23:03:22;100737.18;;;8.30;100.00
38612;BME280;24368;52.156;20.788;2023-04-10T23:08:23;100733.95;;;8.14;100.00
38612;BME280;24368;52.156;20.788;2023-04-10T23:13:24;100727.76;;;8.00;100.00
38612;BME280;24368;52.156;20.788;2023-04-10T23:18:26;100721.02;;;7.94;100.00
38612;BME280;24368;52.156;20.788;2023-04-10T23:23:26;100710.21;;;7.98;100.00
38612;BME280;24368;52.156;20.788;2023-04-10T23:28:28;100706.98;;;8.01;100.00
38612;BME280;24368;52.156;20.788;2023-04-10T23:33:29;100697.52;;;8.02;100.00
38612;BME280;24368;52.156;20.788;2023-04-10T23:38:30;100687.09;;;8.05;100.00
38612;BME280;24368;52.156;20.788;2023-04-10T23:43:32;100677.46;;;7.97;100.00
38612;BME280;24368;52.156;20.788;2023-04-10T23:48:33;100668.98;;;7.93;100.00
38612;BME280;24368;52.156;20.788;2023-04-10T23:53:34;100663.32;;;7.88;100.00
38612;BME280;24368;52.156;20.788;2023-04-10T23:58:35;100653.55;;;7.71;100.00
